Time;durP1;ratioP1;P1;durP2;ratioP2;P2;SDS_P1;SDS_P2;PMS_P1;PMS_P2;Temp;Humidity;BMP_temperature;BMP_pressure;BME280_temperature;BME280_humidity;BME280_pressure;Samples;Min_cycle;Max_cycle;Signal;HPM_P1;HPM_P2
2022/09/01 00:00:02;;;;;;;14.90;10.33;;;;;;;21.25;72.73;96817.97;5067604;28;20246;-75
2022/09/01 00:02:33;;;;;;;14.00;10.23;;;;;;;21.15;73.31;96821.56;5065155;28;20189;-74
2022/09/01 00:05:04;;;;;;;14.30;10.13;;;;;;;21.34;72.56;96826.81;5065587;28;20194;-75
2022/09/01 00:07:34;;;;;;;12.37;9.60;;;;;;;21.15;nan;96829.47;5066655;28;20654;-74
2022/09/01 00:10:04;;;;;;;14.87;9.97;;;;;;;21.32;72.86;96818.22;5066572;28;20192;-73
2022/09/01 00:12:32;;;;;;;15.60;10.60;;;;;;;21.24;72.89;96815.47;5065767;28;20668;-73
2022/09/01 00:14:59;;;;;;;15.17;9.87;;;;;;;21.23;72.86;96808.53;5066224;28;20201;-77
2022/09/01 00:17:28;;;;;;;14.63;10.63;;;;;;;21.38;72.50;96818.50;5049179;28;20236;-74
2022/09/01 00:19:55;;;;;;;15.70;9.10;;;;;;;21.66;71.46;96811.47;5064589;28;20201;-80
2022/09/01 00:22:22;;;;;;;16.53;9.87;;;;;;;21.89;70.98;96820.72;5065385;28;20255;-77
2022/09/01 00:24:50;;;;;;;17.90;10.73;;;;;;;21.99;69.93;96808.34;5066393;28;20189;-78
2022/09/01 00:27:19;;;;;;;12.87;10.17;;;;;;;22.20;69.45;96822.13;5066443;28;20222;-73
2022/09/01 00:29:54;;;;;;;14.33;8.97;;;;;;;22.15;70.01;96820.91;5069623;28;20194;-73
2022/09/01 00:32:22;;;;;;;15.87;9.57;;;;;;;22.14;70.07;96809.53;5068840;28;20202;-74
2022/09/01 00:34:49;;;;;;;14.60;9.67;;;;;;;21.88;70.79;96816.44;5069638;28;20177;-74
2022/09/01 00:37:16;;;;;;;17.87;10.43;;;;;;;21.39;72.02;96811.44;5068696;28;20190;-74
2022/09/01 00:39:43;;;;;;;14.47;9.47;;;;;;;21.25;72.63;96811.84;5070602;28;20186;-73
2022/09/01 00:42:10;;;;;;;12.87;10.43;;;;;;;21.36;72.41;96817.81;5069014;28;20654;-73
2022/09/01 00:44:37;;;;;;;13.73;10.10;;;;;;;21.51;71.99;96819.03;5068902;28;20239;-73
2022/09/01 00:47:08;;;;;;;12.27;9.10;;;;;;;21.66;71.67;96812.31;5069243;28;20194;-77
2022/09/01 00:49:40;;;;;;;13.97;10.00;;;;;;;21.85;71.19;96795.63;5051788;28;20187;-77
2022/09/01 00:52:13;;;;;;;15.53;9.60;;;;;;;21.98;70.25;96811.97;5070712;28;20272;-76
2022/09/01 00:54:45;;;;;;;12.30;9.57;;;;;;;22.11;69.73;96814.28;5069818;28;20575;-73
2022/09/01 00:57:14;;;;;;;15.10;9.83;;;;;;;22.17;69.19;96814.53;5068901;28;20191;-76
2022/09/01 00:59:48;;;;;;;13.43;9.23;;;;;;;22.08;69.97;96811.91;5070070;28;20243;-74
2022/09/01 01:02:15;;;;;;;17.47;10.10;;;;;;;21.48;71.82;96807.94;5069737;28;20220;-73
2022/09/01 01:04:43;;;;;;;16.63;9.90;;;;;;;21.02;73.17;96804.25;5069177;28;20192;-76
2022/09/01 01:07:11;;;;;;;18.00;10.40;;;;;;;20.61;74.67;96801.06;5069291;28;20183;-77
2022/09/01 01:09:42;;;;;;;12.43;10.23;;;;;;;20.50;75.02;96804.66;5070244;28;20217;-77
2022/09/01 01:12:12;;;;;;;13.60;9.73;;;;;;;20.50;75.40;96799.41;5070039;28;20193;-76
2022/09/01 01:14:40;;;;;;;14.07;9.73;;;;;;;20.51;75.57;96800.19;5068721;28;20270;-77
2022/09/01 01:17:11;;;;;;;12.77;9.57;;;;;;;20.57;76.05;96795.22;5069891;28;20185;-73
2022/09/01 01:25:25;;;;;;;13.33;9.47;;;;;;;21.47;72.37;96793.13;5069485;28;20247;-77
2022/09/01 01:28:05;;;;;;;13.57;9.33;;;;;;;21.68;71.82;96805.09;5069910;28;20258;-77
2022/09/01 01:30:35;;;;;;;13.33;10.17;;;;;;;21.63;71.13;96803.88;5068679;28;20637;-75
2022/09/01 01:33:05;;;;;;;15.80;10.40;;;;;;;21.22;72.49;96801.63;5067639;28;20189;-73
2022/09/01 01:35:33;;;;;;;17.97;9.73;;;;;;;20.60;74.21;96775.72;5052238;28;20189;-75
2022/09/01 01:38:06;;;;;;;15.17;10.00;;;;;;;20.79;74.40;96802.03;5067607;28;20225;-74
2022/09/01 01:40:36;;;;;;;15.03;10.10;;;;;;;20.95;73.72;96808.41;5067748;28;20685;-75
2022/09/01 01:43:04;;;;;;;13.67;9.90;;;;;;;20.71;74.03;96800.06;5068337;28;20221;-73
2022/09/01 01:45:32;;;;;;;16.03;10.03;;;;;;;20.51;74.89;96808.94;5050603;28;20736;-73
2022/09/01 01:48:07;;;;;;;13.50;10.27;;;;;;;20.30;75.29;96776.63;5068273;28;20571;-80
2022/09/01 01:50:36;;;;;;;15.70;9.60;;;;;;;20.67;74.54;96806.59;5067399;28;20215;-74
2022/09/01 01:53:07;;;;;;;12.43;9.03;;;;;;;20.97;73.43;96797.72;5068247;28;20197;-73
2022/09/01 01:55:40;;;;;;;13.30;9.20;;;;;;;21.14;72.09;96789.16;5067588;28;20696;-74
2022/09/01 01:58:10;;;;;;;12.13;8.60;;;;;;;21.14;72.02;96781.25;5068881;28;20232;-74
2022/09/01 02:00:43;;;;;;;13.70;9.23;;;;;;;20.89;72.60;96793.19;5067794;28;20210;-73
2022/09/01 02:03:11;;;;;;;12.67;9.43;;;;;;;20.87;73.03;96789.00;5068493;28;20723;-73
2022/09/01 02:05:39;;;;;;;20.53;9.60;;;;;;;21.05;72.77;96779.47;5067921;28;20210;-73
2022/09/01 02:08:08;;;;;;;13.93;9.80;;;;;;;21.11;72.64;96778.06;5066949;28;20204;-74
2022/09/01 02:10:42;;;;;;;12.53;9.10;;;;;;;20.98;72.75;96773.88;5069048;28;20193;-73
2022/09/01 02:13:15;;;;;;;13.23;9.23;;;;;;;21.19;72.35;96776.38;5067508;28;20188;-74
2022/09/01 02:15:45;;;;;;;11.73;8.73;;;;;;;21.18;71.75;96787.06;5067090;28;20189;-73
2022/09/01 02:18:18;;;;;;;12.97;9.10;;;;;;;21.33;71.39;96783.84;5050952;28;20266;-73
2022/09/01 02:20:48;;;;;;;11.43;8.43;;;;;;;21.45;70.51;96784.53;5066677;28;20564;-75
2022/09/01 02:23:22;;;;;;;11.27;8.30;;;;;;;21.46;69.94;96786.16;5067529;28;20197;-75
2022/09/01 02:25:53;;;;;;;12.23;8.50;;;;;;;21.38;70.14;96786.06;5066892;28;20191;-75
2022/09/01 02:28:41;;;;;;;11.93;9.03;;;;;;;21.29;70.08;96785.09;5068182;28;20220;-76
2022/09/01 02:31:10;;;;;;;13.07;9.03;;;;;;;21.14;70.93;96783.06;5068600;28;20182;-76
2022/09/01 02:33:39;;;;;;;10.50;8.70;;;;;;;20.90;71.68;96792.19;5067899;28;20626;-76
2022/09/01 02:36:13;;;;;;;15.57;9.47;;;;;;;20.70;72.50;96785.28;5067425;28;20243;-74
2022/09/01 02:38:44;;;;;;;25.67;10.83;;;;;;;20.58;72.79;96794.28;5066534;28;20764;-75
2022/09/01 02:41:19;;;;;;;17.13;10.70;;;;;;;20.43;73.74;96786.91;5068055;28;20261;-74
2022/09/01 02:43:46;;;;;;;14.77;10.07;;;;;;;20.23;74.24;96780.78;5068457;28;20178;-75
2022/09/01 02:46:15;;;;;;;13.50;10.30;;;;;;;20.17;74.85;96778.66;5067976;28;20238;-77
2022/09/01 02:48:44;;;;;;;14.70;10.07;;;;;;;20.27;74.10;96776.91;5068556;28;20192;-77
2022/09/01 02:51:15;;;;;;;12.97;10.33;;;;;;;20.12;74.66;96772.97;5065180;28;20190;-76
2022/09/01 02:53:45;;;;;;;20.03;11.30;;;;;;;19.76;76.15;96755.16;5067029;28;20196;-76
2022/09/01 02:56:12;;;;;;;14.37;10.33;;;;;;;19.84;76.17;96752.72;5066462;28;20673;-76
2022/09/01 02:58:45;;;;;;;17.70;10.67;;;;;;;19.89;75.82;96758.38;5067861;28;20220;-76
2022/09/01 03:01:23;;;;;;;13.00;10.13;;;;;;;19.58;77.15;96757.56;5067872;28;20216;-75
2022/09/01 03:03:56;;;;;;;17.13;11.63;;;;;;;19.55;77.17;96751.75;5067222;28;20177;-77
2022/09/01 03:06:23;;;;;;;16.10;11.03;;;;;;;19.79;77.25;96762.78;5066885;28;20189;-77
2022/09/01 03:08:54;;;;;;;17.70;10.63;;;;;;;19.96;75.88;96768.25;5067205;28;20238;-76
2022/09/01 03:11:23;;;;;;;14.60;10.17;;;;;;;20.10;75.48;96781.00;5066419;28;20200;-75
2022/09/01 03:13:51;;;;;;;21.50;10.93;;;;;;;20.04;75.33;96780.69;5066262;28;20192;-73
2022/09/01 03:16:21;;;;;;;20.90;12.13;;;;;;;20.04;75.67;96785.97;5065606;28;20270;-73
2022/09/01 03:18:49;;;;;;;16.07;12.80;;;;;;;19.99;75.81;96789.00;5066283;28;20331;-72
2022/09/01 03:21:19;;;;;;;17.40;13.20;;;;;;;19.97;75.97;96792.75;5065266;28;20200;-72
2022/09/01 03:23:47;;;;;;;18.57;12.93;;;;;;;20.10;76.03;96796.78;5067859;28;20181;-73
2022/09/01 03:26:18;;;;;;;26.37;15.33;;;;;;;19.99;76.11;96780.28;5065278;28;20204;-75
2022/09/01 03:28:46;;;;;;;16.93;12.10;;;;;;;19.98;75.35;96787.34;5065878;28;20192;-72
2022/09/01 03:31:14;;;;;;;17.13;12.77;;;;;;;19.82;76.06;96791.44;5048986;28;20634;-73
2022/09/01 03:33:41;;;;;;;19.63;12.87;;;;;;;19.90;75.31;96794.22;5065306;28;20641;-73
2022/09/01 03:36:19;;;;;;;18.37;11.77;;;;;;;19.74;76.20;96786.00;5065965;28;20274;-78
2022/09/01 03:38:48;;;;;;;18.10;11.77;;;;;;;19.72;76.12;96795.81;5064926;28;20324;-74
2022/09/01 03:41:23;;;;;;;16.07;11.07;;;;;;;19.71;76.44;96799.41;5065867;28;20258;-75
2022/09/01 03:43:56;;;;;;;17.37;11.23;;;;;;;19.69;75.88;96790.81;5048417;28;20197;-75
2022/09/01 03:46:30;;;;;;;17.87;10.90;;;;;;;19.79;75.36;96794.31;5048740;28;20207;-74
2022/09/01 03:49:06;;;;;;;15.87;10.87;;;;;;;19.82;75.21;96796.69;5065726;28;20206;-74
2022/09/01 03:51:38;;;;;;;16.13;11.10;;;;;;;19.60;75.97;96804.75;5064056;28;20222;-73
2022/09/01 03:54:07;;;;;;;20.70;11.30;;;;;;;19.43;76.79;96800.94;5074120;28;20706;-74
2022/09/01 03:56:35;;;;;;;17.37;10.83;;;;;;;19.26;77.75;96797.06;5086609;28;20193;-75
2022/09/01 03:59:02;;;;;;;18.63;11.83;;;;;;;19.17;78.28;96808.34;5062548;28;20239;-75
2022/09/01 04:01:33;;;;;;;19.47;12.30;;;;;;;19.23;78.08;96805.19;5069104;28;20562;-75
2022/09/01 04:04:01;;;;;;;19.10;10.70;;;;;;;19.31;77.81;96802.75;5065061;28;20181;-75
2022/09/01 04:06:31;;;;;;;17.00;11.67;;;;;;;19.40;77.45;96802.03;5065652;28;20230;-78
2022/09/01 04:09:01;;;;;;;16.90;10.63;;;;;;;19.79;76.54;96802.19;5066298;28;20188;-76
2022/09/01 04:11:33;;;;;;;17.10;11.27;;;;;;;19.91;75.48;96801.13;5058839;28;20196;-78
2022/09/01 04:14:01;;;;;;;14.97;10.10;;;;;;;19.89;75.55;96797.81;5055825;28;20286;-78
2022/09/01 04:19:26;;;;;;;16.17;10.27;;;;;;;20.36;73.87;96810.28;5045632;28;20686;-78
2022/09/01 04:21:59;;;;;;;19.83;10.53;;;;;;;20.33;73.59;96807.94;5044515;28;20695;-79
2022/09/01 04:24:32;;;;;;;13.80;9.40;;;;;;;20.38;73.45;96823.31;5045835;28;20618;-76
2022/09/01 04:27:02;;;;;;;14.93;10.40;;;;;;;20.46;73.25;96813.78;5044848;28;20204;-76
2022/09/01 04:29:30;;;;;;;13.10;10.03;;;;;;;20.62;72.13;96813.25;5045088;28;20316;-78
2022/09/01 04:32:02;;;;;;;19.13;9.60;;;;;;;20.74;71.98;96806.88;5045125;28;20201;-78
2022/09/01 04:34:37;;;;;;;16.10;10.40;;;;;;;20.91;70.84;96807.03;5044826;28;20186;-78
2022/09/01 04:37:13;;;;;;;16.67;10.30;;;;;;;20.67;71.75;96808.41;5045411;28;20198;-76
2022/09/01 04:39:47;;;;;;;16.60;10.20;;;;;;;20.52;72.69;96813.25;5044590;28;20733;-78
2022/09/01 04:42:22;;;;;;;14.30;10.03;;;;;;;20.69;72.07;96799.38;5045451;28;20286;-77
2022/09/01 04:44:52;;;;;;;16.63;11.07;;;;;;;20.98;71.08;96802.00;5027991;28;20280;-77
2022/09/01 04:47:28;;;;;;;18.90;10.73;;;;;;;21.31;69.85;96803.41;5044696;28;20827;-75
2022/09/01 04:50:12;;;;;;;12.87;9.23;;;;;;;21.43;68.89;96795.19;5030046;28;20268;-77
2022/09/01 04:52:44;;;;;;;14.40;10.37;;;;;;;21.57;68.58;96794.75;5044412;28;20190;-75
2022/09/01 04:55:28;;;;;;;16.53;10.63;;;;;;;21.53;68.70;96798.66;5044873;28;20193;-74
2022/09/01 04:57:59;;;;;;;14.80;9.87;;;;;;;21.68;68.27;96799.00;5044783;28;20183;-77
2022/09/01 05:00:31;;;;;;;20.77;10.40;;;;;;;21.91;67.77;96805.59;5044428;28;20296;-74
2022/09/01 05:03:04;;;;;;;18.93;10.33;;;;;;;22.00;67.26;96807.38;5045185;28;20206;-75
2022/09/01 05:05:52;;;;;;;15.93;9.87;;;;;;;22.16;66.86;96812.00;5045433;28;20574;-74
2022/09/01 05:08:22;;;;;;;19.20;9.83;;;;;;;21.94;67.14;96805.31;5044612;28;20212;-77
2022/09/01 05:10:55;;;;;;;16.60;9.13;;;;;;;21.95;67.43;96804.31;5012157;28;20196;-76
2022/09/01 05:13:58;;;;;;;14.53;9.43;;;;;;;21.75;68.15;96810.63;5040794;28;20191;-79
2022/09/01 05:16:26;;;;;;;14.53;10.27;;;;;;;21.57;69.27;96807.09;5048182;28;20216;-79
2022/09/01 05:18:56;;;;;;;12.80;10.77;;;;;;;21.35;70.02;96804.78;5047968;28;20228;-77
2022/09/01 05:21:30;;;;;;;18.93;10.80;;;;;;;21.36;70.43;96801.16;5048267;28;20188;-75
2022/09/01 05:24:00;;;;;;;16.47;11.83;;;;;;;21.46;70.29;96792.28;5049551;28;20675;-75
2022/09/01 05:26:30;;;;;;;15.73;11.53;;;;;;;21.67;69.89;96794.72;5047904;28;20765;-77
2022/09/01 05:29:03;;;;;;;17.57;12.50;;;;;;;21.80;69.56;96797.88;5049984;28;20202;-75
2022/09/01 05:31:36;;;;;;;18.07;12.77;;;;;;;21.66;70.01;96801.78;5030905;28;20294;-75
2022/09/01 05:34:08;;;;;;;15.67;10.43;;;;;;;21.74;69.35;96793.97;5048249;28;20227;-75
2022/09/01 05:36:44;;;;;;;16.47;11.33;;;;;;;22.14;68.60;96800.78;5047914;28;20697;-76
2022/09/01 05:39:12;;;;;;;17.60;11.87;;;;;;;22.59;67.25;96807.75;5031333;28;20227;-75
2022/09/01 05:41:40;;;;;;;21.20;12.40;;;;;;;22.75;67.03;96806.25;5048189;28;20191;-75
2022/09/01 05:44:08;;;;;;;17.83;12.17;;;;;;;22.29;68.21;96808.06;5048628;28;20394;-75
2022/09/01 05:46:37;;;;;;;16.50;10.50;;;;;;;22.25;68.59;96809.34;5031587;28;20257;-76
2022/09/01 05:49:12;;;;;;;18.77;11.47;;;;;;;22.30;68.55;96809.72;5047242;28;20206;-74
2022/09/01 05:51:42;;;;;;;16.80;11.33;;;;;;;22.40;68.59;96797.28;5049019;28;20188;-74
2022/09/01 05:54:21;;;;;;;17.43;10.60;;;;;;;22.86;67.29;96806.03;5047645;28;20758;-74
2022/09/01 05:56:49;;;;;;;13.53;9.20;;;;;;;23.01;65.87;96802.72;5048430;28;20221;-74
2022/09/01 05:59:22;;;;;;;15.33;9.60;;;;;;;22.76;65.67;96745.38;5047705;28;20652;-73
2022/09/01 06:02:14;;;;;;;17.30;9.97;;;;;;;23.17;65.60;96815.22;5030243;28;20201;-74
2022/09/01 06:04:42;;;;;;;13.53;8.47;;;;;;;23.45;65.12;96819.44;5047201;28;20226;-73
2022/09/01 06:07:22;;;;;;;13.47;9.20;;;;;;;23.52;64.86;96812.53;5047327;28;20199;-73
2022/09/01 06:09:53;;;;;;;15.17;8.90;;;;;;;23.55;64.90;96812.22;5046844;28;20596;-75
2022/09/01 06:12:23;;;;;;;14.00;8.70;;;;;;;23.57;64.37;96814.72;5047116;28;20281;-75
2022/09/01 06:14:54;;;;;;;15.27;8.93;;;;;;;23.78;63.74;96816.00;5046413;28;20183;-77
2022/09/01 06:17:24;;;;;;;14.23;9.13;;;;;;;24.08;62.57;96815.53;5048355;28;20663;-75
2022/09/01 06:19:57;;;;;;;19.40;11.10;;;;;;;24.39;61.55;96805.22;5046506;28;20226;-79
2022/09/01 06:22:27;;;;;;;17.43;8.97;;;;;;;24.77;60.74;96812.63;5046786;28;20231;-76
2022/09/01 06:24:58;;;;;;;14.30;8.57;;;;;;;24.98;60.20;96793.59;5030946;28;20697;-76
2022/09/01 06:27:43;;;;;;;15.90;8.50;;;;;;;24.89;59.61;96815.78;5028264;28;20295;-77
2022/09/01 06:30:17;;;;;;;11.90;8.80;;;;;;;25.01;59.54;96811.84;5047305;28;20253;-79
2022/09/01 06:33:08;;;;;;;18.23;9.63;;;;;;;25.13;59.17;96801.72;5032832;28;20658;-77
2022/09/01 06:35:37;;;;;;;20.03;10.83;;;;;;;25.15;59.70;96807.69;5046382;28;20652;-78
2022/09/01 06:38:05;;;;;;;18.00;9.37;;;;;;;25.31;58.17;96805.84;5030454;28;20193;-79
2022/09/01 06:40:43;;;;;;;16.87;9.73;;;;;;;25.41;58.32;96790.63;5029026;28;20586;-78
2022/09/01 06:43:16;;;;;;;15.70;8.10;;;;;;;25.65;57.60;96805.69;5046558;28;20193;-78
2022/09/01 06:45:53;;;;;;;15.33;8.87;;;;;;;25.90;55.56;96803.81;5029909;28;20763;-74
2022/09/01 06:48:24;;;;;;;11.57;7.50;;;;;;;26.01;54.80;96800.78;5046244;28;20205;-77
2022/09/01 06:51:01;;;;;;;15.53;8.00;;;;;;;26.13;55.09;96802.09;5046497;28;20217;-78
2022/09/01 06:53:55;;;;;;;14.53;7.60;;;;;;;26.29;54.74;96802.88;5032373;28;20580;-76
2022/09/01 06:56:30;;;;;;;11.33;8.10;;;;;;;26.12;53.30;96792.47;5029658;28;20281;-74
2022/09/01 06:59:06;;;;;;;17.60;12.27;;;;;;;25.93;54.82;96806.09;5045652;28;20190;-78
2022/09/01 07:01:36;;;;;;;16.87;9.37;;;;;;;26.13;53.50;96802.91;5045782;28;20205;-77
2022/09/01 07:04:06;;;;;;;14.03;8.77;;;;;;;26.18;53.51;96810.38;5046275;28;20201;-75
2022/09/01 07:06:51;;;;;;;17.77;9.10;;;;;;;26.39;52.87;96803.47;5030549;28;20279;-78
2022/09/01 07:09:28;;;;;;;13.87;11.17;;;;;;;26.48;52.86;96812.25;5045962;28;20549;-76
2022/09/01 07:12:29;;;;;;;20.13;8.07;;;;;;;26.55;52.75;96810.53;5046158;28;20208;-76
2022/09/01 07:15:02;;;;;;;9.13;7.63;;;;;;;26.63;52.63;96811.31;5028630;28;20201;-77
2022/09/01 07:17:52;;;;;;;18.97;10.50;;;;;;;26.63;51.66;96807.81;5045921;28;20201;-78
2022/09/01 07:20:25;;;;;;;16.40;9.40;;;;;;;26.67;51.86;96801.16;5045250;28;20213;-75
2022/09/01 07:22:59;;;;;;;11.50;7.60;;;;;;;26.49;51.58;96812.06;5045406;28;20294;-77
2022/09/01 07:25:53;;;;;;;12.67;7.37;;;;;;;26.03;53.21;96817.38;5045904;28;20583;-76
2022/09/01 07:28:45;;;;;;;10.90;7.50;;;;;;;25.93;53.83;96809.59;5028441;28;20697;-77
2022/09/01 07:31:24;;;;;;;17.60;8.47;;;;;;;26.16;52.98;96815.84;5045533;28;20192;-77
2022/09/01 07:34:15;;;;;;;9.20;6.67;;;;;;;26.48;51.73;96798.97;5045084;28;20685;-77
2022/09/01 07:37:04;;;;;;;13.70;7.30;;;;;;;26.91;51.72;96818.81;5045511;28;20187;-75
2022/09/01 07:39:54;;;;;;;13.90;7.00;;;;;;;26.96;50.86;96811.97;5028423;28;20321;-78
2022/09/01 07:42:41;;;;;;;16.57;8.10;;;;;;;27.06;51.67;96811.75;5045292;28;20680;-76
2022/09/01 07:46:07;;;;;;;17.30;7.07;;;;;;;27.38;50.68;96811.50;5023063;28;20241;-78
2022/09/01 07:48:57;;;;;;;11.87;6.97;;;;;;;27.01;51.06;96812.28;5007626;28;20677;-77
2022/09/01 07:51:50;;;;;;;26.63;15.57;;;;;;;26.74;51.12;96812.78;5042323;28;20200;-75
2022/09/01 07:54:20;;;;;;;12.20;7.27;;;;;;;26.70;50.55;96813.25;5044275;28;20187;-76
2022/09/01 07:56:47;;;;;;;12.20;8.47;;;;;;;26.31;51.32;96815.97;5046801;28;20186;-76
2022/09/01 07:59:17;;;;;;;10.53;5.83;;;;;;;26.66;51.20;96796.84;5044300;28;20182;-76
2022/09/01 08:01:52;;;;;;;10.93;6.27;;;;;;;26.91;50.44;96805.53;5044560;28;20189;-79
2022/09/01 08:04:21;;;;;;;13.87;9.37;;;;;;;27.12;49.19;96803.06;5028643;28;20189;-76
2022/09/01 08:06:50;;;;;;;13.03;6.23;;;;;;;27.01;49.25;96804.28;5028338;28;20190;-76
2022/09/01 08:09:18;;;;;;;12.93;6.60;;;;;;;27.26;48.35;96808.41;5046610;28;20248;-76
2022/09/01 08:12:06;;;;;;;12.97;6.80;;;;;;;27.30;48.80;96809.72;5044375;28;20181;-76
2022/09/01 08:14:52;;;;;;;9.73;5.67;;;;;;;27.23;48.51;96803.44;5044335;28;20296;-75
2022/09/01 08:17:40;;;;;;;12.50;7.10;;;;;;;27.13;48.12;96796.72;5014821;28;20290;-76
2022/09/01 08:20:30;;;;;;;12.97;6.70;;;;;;;27.39;48.67;96797.19;5044245;28;20225;-80
2022/09/01 08:23:22;;;;;;;12.67;6.03;;;;;;;27.41;47.69;96789.84;5031451;28;20550;-76
2022/09/01 08:25:49;;;;;;;9.63;5.13;;;;;;;27.62;47.01;96792.63;5046119;28;20182;-79
2022/09/01 08:28:19;;;;;;;12.23;7.57;;;;;;;28.09;45.15;96794.97;5043857;28;20225;-74
2022/09/01 08:30:55;;;;;;;7.37;5.03;;;;;;;28.15;44.56;96799.59;5029648;28;20213;-75
2022/09/01 08:33:24;;;;;;;8.27;5.10;;;;;;;27.48;45.25;96792.63;5027299;28;20197;-76
2022/09/01 08:35:54;;;;;;;11.50;6.23;;;;;;;27.80;43.20;96795.78;5044667;28;20631;-76
2022/09/01 08:38:24;;;;;;;8.53;4.47;;;;;;;28.03;43.17;96791.22;5044416;28;20735;-77
2022/09/01 08:40:54;;;;;;;11.50;8.07;;;;;;;28.06;42.93;96798.84;5027983;28;20283;-78
2022/09/01 08:43:36;;;;;;;7.43;5.13;;;;;;;28.24;42.73;96795.81;5044641;28;20498;-77
2022/09/01 08:46:21;;;;;;;16.37;7.53;;;;;;;28.17;42.85;96792.25;5026724;28;20364;-74
2022/09/01 08:49:06;;;;;;;12.30;4.80;;;;;;;28.33;41.60;96789.38;5044877;28;20197;-77
2022/09/01 08:52:16;;;;;;;9.00;5.40;;;;;;;28.59;40.38;96792.38;5049842;28;20193;-76
2022/09/01 08:54:53;;;;;;;12.03;5.37;;;;;;;28.17;42.10;96793.03;5047898;28;20247;-78
2022/09/01 08:57:36;;;;;;;8.73;5.13;;;;;;;28.15;41.30;96788.94;5031891;28;20210;-76
2022/09/01 09:00:22;;;;;;;13.03;5.17;;;;;;;28.18;40.48;96776.06;5033193;28;20236;-78
2022/09/01 09:03:00;;;;;;;8.37;4.77;;;;;;;28.00;41.91;96770.31;5032017;28;20285;-76
2022/09/01 09:05:52;;;;;;;12.07;5.33;;;;;;;27.93;42.00;96776.50;5048037;28;20224;-79
2022/09/01 09:08:34;;;;;;;7.73;4.93;;;;;;;28.03;41.97;96729.97;5046747;28;20194;-76
2022/09/01 09:11:21;;;;;;;10.03;5.10;;;;;;;28.03;40.80;96758.44;5046662;28;20201;-78
2022/09/01 09:14:13;;;;;;;11.67;5.03;;;;;;;27.90;40.53;96766.22;5049294;28;20190;-76
2022/09/01 09:16:47;;;;;;;10.60;4.73;;;;;;;27.75;42.39;96760.91;5031196;28;20830;-77
2022/09/01 09:19:27;;;;;;;11.00;5.23;;;;;;;28.41;42.34;96748.47;5049157;28;20633;-79
2022/09/01 09:21:58;;;;;;;13.33;6.27;;;;;;;28.84;40.70;96753.69;5031071;28;20212;-77
2022/09/01 09:24:49;;;;;;;8.63;4.80;;;;;;;28.83;40.35;96756.56;5047047;28;20613;-78
2022/09/01 09:27:32;;;;;;;10.53;5.43;;;;;;;28.83;41.46;96749.34;5047710;28;20206;-76
2022/09/01 09:30:11;;;;;;;11.47;5.23;;;;;;;28.67;41.36;96752.28;5048232;28;20672;-80
2022/09/01 09:33:04;;;;;;;10.73;4.77;;;;;;;28.30;42.00;96747.09;5047395;28;20200;-78
2022/09/01 09:35:53;;;;;;;9.83;5.20;;;;;;;28.25;41.26;96752.19;5049257;28;20178;-76
2022/09/01 09:38:31;;;;;;;14.17;6.53;;;;;;;27.88;42.40;96738.97;5046835;28;20201;-79
2022/09/01 09:41:04;;;;;;;9.40;5.60;;;;;;;28.15;42.46;96746.31;5048860;28;20308;-78
2022/09/01 09:44:04;;;;;;;11.33;5.00;;;;;;;28.39;41.04;96738.00;5047138;28;20261;-81
2022/09/01 09:46:31;;;;;;;11.40;5.80;;;;;;;28.59;40.56;96738.22;5040700;28;20204;-78
2022/09/01 09:49:18;;;;;;;10.03;4.67;;;;;;;28.97;40.18;96727.13;5048950;28;20194;-78
2022/09/01 09:52:08;;;;;;;12.73;6.27;;;;;;;29.33;40.07;96734.22;5048381;28;20233;-78
2022/09/01 09:54:57;;;;;;;11.73;5.20;;;;;;;29.18;40.25;96733.50;5048062;28;20756;-75
2022/09/01 09:57:25;;;;;;;11.63;5.93;;;;;;;29.44;39.39;96729.19;5048988;28;20194;-78
2022/09/01 09:59:59;;;;;;;12.07;4.63;;;;;;;29.60;38.18;96720.88;5029703;28;20198;-79
2022/09/01 10:02:32;;;;;;;11.23;5.53;;;;;;;29.58;39.62;96725.59;5048213;28;20288;-78
2022/09/01 10:05:25;;;;;;;15.13;5.63;;;;;;;29.79;39.70;96719.38;5048356;28;20814;-79
2022/09/01 10:07:55;;;;;;;11.47;5.10;;;;;;;29.96;39.39;96717.19;5047925;28;20196;-79
2022/09/01 10:10:44;;;;;;;13.43;5.00;;;;;;;29.81;40.52;96720.00;5047222;28;20207;-80
2022/09/01 10:13:29;;;;;;;8.20;5.13;;;;;;;29.68;41.08;96711.88;5032141;28;20574;-78
2022/09/01 10:16:02;;;;;;;12.80;5.50;;;;;;;29.38;42.46;96713.13;5048154;28;20186;-79
2022/09/01 10:18:45;;;;;;;9.40;5.00;;;;;;;29.59;41.34;96705.06;5014290;28;20189;-79
2022/09/01 10:21:21;;;;;;;13.77;5.67;;;;;;;29.84;41.66;96710.78;5045963;28;20762;-79
2022/09/01 10:23:48;;;;;;;12.47;5.37;;;;;;;30.01;40.43;96710.22;5048965;28;20221;-79
2022/09/01 10:26:23;;;;;;;8.33;5.50;;;;;;;30.29;40.51;96707.47;5029517;28;20251;-75
2022/09/01 10:28:58;;;;;;;12.20;6.27;;;;;;;30.37;40.54;96705.47;5048057;28;20746;-79
2022/09/01 10:31:26;;;;;;;6.77;5.03;;;;;;;30.09;40.99;96701.25;5029860;28;20204;-79
2022/09/01 10:34:02;;;;;;;10.77;5.50;;;;;;;30.35;39.75;96707.53;5047592;28;20194;-79
2022/09/01 10:36:34;;;;;;;9.83;5.00;;;;;;;30.47;39.42;96716.63;5046703;28;20275;-79
2022/09/01 10:39:03;;;;;;;9.93;4.47;;;;;;;30.17;39.66;96707.22;5045426;28;20193;-76
2022/09/01 10:41:52;;;;;;;11.70;5.03;;;;;;;29.57;40.31;96717.78;5047727;28;20279;-79
2022/09/01 10:44:29;;;;;;;10.53;5.60;;;;;;;29.46;40.08;96696.97;5047663;28;20735;-76
2022/09/01 10:47:09;;;;;;;10.20;4.93;;;;;;;29.80;40.52;96704.97;5045382;28;20665;-75
2022/09/01 10:49:46;;;;;;;11.40;5.70;;;;;;;30.02;39.35;96701.22;5047867;28;20205;-76
2022/09/01 10:52:41;;;;;;;16.80;5.63;;;;;;;30.33;38.62;96704.25;5029183;28;20198;-77
2022/09/01 10:55:29;;;;;;;16.70;6.60;;;;;;;29.83;38.82;96699.25;5047123;28;20292;-78
2022/09/01 10:58:42;;;;;;;12.30;4.90;;;;;;;29.97;38.69;96694.78;5047626;28;20651;-75
2022/09/01 11:01:44;;;;;;;7.47;5.10;;;;;;;29.87;39.52;96691.66;5037618;28;20232;-75
2022/09/01 11:04:17;;;;;;;8.17;5.10;;;;;;;29.65;38.56;96688.25;5046945;28;20210;-78
2022/09/01 11:06:44;;;;;;;10.47;4.93;;;;;;;29.82;39.16;96694.94;5047666;28;20224;-78
2022/09/01 11:09:34;;;;;;;9.03;5.10;;;;;;;29.69;39.48;96684.16;5047088;28;20281;-75
2022/09/01 11:12:37;;;;;;;8.57;4.50;;;;;;;30.01;38.71;96678.19;5047073;28;20198;-79
2022/09/01 11:15:16;;;;;;;7.03;5.17;;;;;;;30.19;38.29;96675.75;5046671;28;20272;-76
2022/09/01 11:17:52;;;;;;;14.33;5.20;;;;;;;30.01;38.52;96677.34;5044860;28;20621;-78
2022/09/01 11:20:33;;;;;;;8.47;4.97;;;;;;;30.37;36.87;96678.75;5047352;28;20214;-79
2022/09/01 11:23:05;;;;;;;9.43;5.10;;;;;;;30.44;36.66;96660.88;5046989;28;20213;-75
2022/09/01 11:25:39;;;;;;;10.87;4.43;;;;;;;30.45;37.62;96669.72;5046673;28;20205;-76
2022/09/01 11:28:16;;;;;;;13.10;5.00;;;;;;;30.03;38.26;96665.44;5047425;28;20186;-75
2022/09/01 11:30:51;;;;;;;11.13;4.97;;;;;;;30.15;37.38;96671.84;5045084;28;20197;-75
2022/09/01 11:33:32;;;;;;;16.43;5.37;;;;;;;29.85;38.01;96683.03;5047188;28;20217;-75
2022/09/01 11:36:11;;;;;;;11.43;5.43;;;;;;;29.94;37.81;96666.66;5046741;28;20208;-75
2022/09/01 11:38:47;;;;;;;12.47;5.23;;;;;;;29.78;38.31;96666.97;5046380;28;20620;-74
2022/09/01 11:41:34;;;;;;;11.00;5.70;;;;;;;30.52;37.59;96670.56;5046548;28;20278;-78
2022/09/01 11:44:29;;;;;;;14.97;5.77;;;;;;;30.91;36.19;96664.47;5044284;28;20766;-77
2022/09/01 11:47:11;;;;;;;23.33;10.53;;;;;;;30.79;36.98;96664.19;5039506;28;20255;-77
2022/09/01 11:49:49;;;;;;;9.10;4.93;;;;;;;30.65;37.09;96657.19;5046676;28;20672;-77
2022/09/01 11:52:20;;;;;;;5.90;4.53;;;;;;;29.93;38.20;96662.31;5045781;28;20207;-75
2022/09/01 11:54:48;;;;;;;10.10;4.60;;;;;;;30.07;37.60;96644.50;5046883;28;20273;-75
2022/09/01 11:57:36;;;;;;;8.97;4.70;;;;;;;30.36;36.23;96655.72;5044562;28;20296;-75
2022/09/01 12:00:08;;;;;;;9.07;4.53;;;;;;;30.43;37.22;96656.56;5046111;28;20595;-74
2022/09/01 12:02:49;;;;;;;10.33;5.20;;;;;;;30.20;36.92;96661.41;5045007;28;20650;-79
2022/09/01 12:05:36;;;;;;;10.27;5.23;;;;;;;29.91;37.26;96656.38;5045766;28;20185;-79
2022/09/01 12:08:20;;;;;;;6.43;4.33;;;;;;;30.19;36.38;96659.75;5046469;28;20193;-77
2022/09/01 12:10:50;;;;;;;8.13;4.50;;;;;;;30.15;37.00;96652.34;5044745;28;20235;-77